createdAt,value
2018-03-27T00:53:25.873Z,3.00
2018-03-27T01:13:58.502Z,2.90
2018-03-27T01:22:53.545Z,2.90
2018-03-27T01:25:26.538Z,2.90
2018-03-27T01:28:24.651Z,2.90
2018-03-27T01:48:53.094Z,3.10
2018-03-27T01:51:22.663Z,3.10
2018-03-27T01:53:52.406Z,3.10
2018-03-27T01:56:20.862Z,3.10
2018-03-27T02:01:22.396Z,3.10
2018-03-27T02:03:55.778Z,3.00
2018-03-27T02:09:16.788Z,2.90
2018-03-27T02:11:50.036Z,3.00
2018-03-27T02:14:23.515Z,3.00
2018-03-27T02:16:57.438Z,3.00
2018-03-27T02:19:32.589Z,2.90
2018-03-27T02:22:00.091Z,2.90
2018-03-27T02:24:30.152Z,3.00
2018-03-27T02:26:58.320Z,3.00
2018-03-27T02:29:27.239Z,3.00
2018-03-27T02:31:54.797Z,3.00
2018-03-27T02:34:24.582Z,3.10
2018-03-27T02:36:53.536Z,3.10
2018-03-27T02:39:22.124Z,3.10
2018-03-27T02:41:51.287Z,3.20
2018-03-27T02:44:22.183Z,3.20
2018-03-27T02:46:52.169Z,3.20
2018-03-27T02:49:21.046Z,3.20
2018-03-27T02:51:51.839Z,3.30
2018-03-27T02:54:20.388Z,3.20
2018-03-27T02:56:53.873Z,3.20
2018-03-27T03:02:24.026Z,3.20
2018-03-27T03:07:49.720Z,3.20
2018-03-27T03:10:19.114Z,3.30
2018-03-27T03:12:46.753Z,3.20
2018-03-27T03:15:15.256Z,3.20
2018-03-27T03:17:43.984Z,3.20
2018-03-27T03:20:11.673Z,3.20
2018-03-27T03:22:40.731Z,3.30
2018-03-27T03:25:12.045Z,3.20
2018-03-27T03:27:56.346Z,3.20
2018-03-27T03:30:43.425Z,3.30
2018-03-27T03:33:11.201Z,3.20
2018-03-27T03:35:41.133Z,3.30
2018-03-27T03:41:06.697Z,3.20
2018-03-27T03:49:24.419Z,3.30
2018-03-27T03:51:53.437Z,3.30
2018-03-27T03:54:23.726Z,3.30
2018-03-27T03:56:51.294Z,3.30
2018-03-27T03:59:19.764Z,3.30
2018-03-27T04:01:50.645Z,3.30
2018-03-27T04:04:18.620Z,3.30
2018-03-27T04:06:47.052Z,3.20
2018-03-27T04:09:14.645Z,3.20
2018-03-27T04:11:43.117Z,3.20
2018-03-27T04:17:09.618Z,2.90
2018-03-27T04:19:56.490Z,3.00
2018-03-27T04:28:24.480Z,2.90
2018-03-27T04:30:52.139Z,2.90
2018-03-27T04:33:19.685Z,2.80
2018-03-27T04:35:47.354Z,2.80
2018-03-27T04:44:17.936Z,2.70
2018-03-27T04:46:46.277Z,2.60
2018-03-27T04:49:24.404Z,2.60
2018-03-27T04:52:00.127Z,2.60
2018-03-27T05:03:24.139Z,2.30
2018-03-27T05:05:54.811Z,2.30
2018-03-27T05:24:25.089Z,2.00
2018-03-27T05:44:58.152Z,2.20
2018-03-27T05:47:25.796Z,2.10
2018-03-27T05:56:19.456Z,2.20
2018-03-27T05:58:46.956Z,2.20
2018-03-27T06:01:14.436Z,2.30
2018-03-27T06:03:54.146Z,2.40
2018-03-27T06:06:21.634Z,2.60
2018-03-27T06:08:49.137Z,2.70
2018-03-27T06:11:16.659Z,2.80
2018-03-27T06:13:44.139Z,3.00
2018-03-27T06:16:11.666Z,3.10
2018-03-27T06:18:39.917Z,3.20
2018-03-27T06:21:07.446Z,3.20
2018-03-27T06:23:34.938Z,3.30
2018-03-27T06:26:05.926Z,3.40
2018-03-27T06:28:33.472Z,3.40
2018-03-27T06:31:00.961Z,3.50
2018-03-27T06:33:29.439Z,3.60
2018-03-27T06:35:59.177Z,3.70
2018-03-27T06:38:27.476Z,3.60
2018-03-27T06:40:55.830Z,3.60
2018-03-27T06:43:23.401Z,3.60
2018-03-27T06:45:50.970Z,3.60
2018-03-27T06:48:18.636Z,3.60
2018-03-27T06:50:46.210Z,3.50
2018-03-27T06:53:34.185Z,3.50
2018-03-27T06:56:01.692Z,3.50
2018-03-27T06:58:29.949Z,3.70
2018-03-27T07:00:57.664Z,3.70
2018-03-27T07:03:26.138Z,3.60
2018-03-27T07:05:53.858Z,3.60
2018-03-27T07:08:24.739Z,3.50
2018-03-27T07:10:53.166Z,3.60
2018-03-27T07:13:20.687Z,3.70
2018-03-27T07:15:48.185Z,3.60
2018-03-27T07:18:15.677Z,3.70
2018-03-27T07:20:45.435Z,3.80
2018-03-27T07:23:13.179Z,3.90
2018-03-27T07:25:40.666Z,4.00
2018-03-27T07:28:08.161Z,4.10
2018-03-27T07:30:35.692Z,4.10
2018-03-27T07:33:03.155Z,4.30
2018-03-27T07:35:31.475Z,4.80
2018-03-27T07:37:59.000Z,4.70
2018-03-27T07:40:27.254Z,5.70
2018-03-27T07:42:54.704Z,5.70
2018-03-27T07:45:43.097Z,6.20
2018-03-27T07:48:10.607Z,6.70
2018-03-27T07:50:40.056Z,7.10
2018-03-27T07:53:07.578Z,7.40
2018-03-27T07:55:35.836Z,7.60
2018-03-27T07:58:03.366Z,7.60
2018-03-27T08:00:30.852Z,7.90
2018-03-27T08:02:58.355Z,8.00
2018-03-27T08:05:25.836Z,8.20
2018-03-27T08:07:54.103Z,8.10
2018-03-27T08:10:22.404Z,8.10
2018-03-27T08:12:50.778Z,8.10
2018-03-27T08:15:19.190Z,8.10
2018-03-27T08:17:54.320Z,7.90
2018-03-27T08:20:26.268Z,7.00
2018-03-27T08:22:55.015Z,7.00
2018-03-27T08:25:22.698Z,6.90
2018-03-27T08:27:55.675Z,7.00
2018-03-27T08:30:25.403Z,7.40
2018-03-27T08:33:00.223Z,7.50
2018-03-27T08:35:27.939Z,7.40
2018-03-27T08:37:55.905Z,7.40
2018-03-27T08:43:28.473Z,7.60
2018-03-27T08:45:57.412Z,7.50
2018-03-27T08:48:25.083Z,7.50
2018-03-27T08:50:57.301Z,7.50
2018-03-27T08:53:26.815Z,7.70
2018-03-27T08:55:55.864Z,7.80
2018-03-27T08:58:25.009Z,8.10
2018-03-27T09:00:54.589Z,8.90
2018-03-27T09:03:25.747Z,8.90
2018-03-27T09:05:53.279Z,8.90
2018-03-27T09:08:24.619Z,8.80
2018-03-27T09:10:52.208Z,8.80
2018-03-27T09:13:20.428Z,8.40
2018-03-27T09:15:47.934Z,8.30
2018-03-27T09:18:26.813Z,8.50
2018-03-27T09:20:54.648Z,9.00
2018-03-27T09:23:22.214Z,9.60
2018-03-27T09:25:49.675Z,10.00
2018-03-27T09:28:19.085Z,10.40
2018-03-27T09:30:46.561Z,10.90
2018-03-27T09:33:27.416Z,11.10
2018-03-27T09:35:54.892Z,10.80
2018-03-27T09:38:22.368Z,10.60
2018-03-27T09:40:49.828Z,10.20
2018-03-27T09:43:17.313Z,9.90
2018-03-27T09:45:44.767Z,9.70
2018-03-27T09:48:12.246Z,9.80
2018-03-27T09:50:39.744Z,9.70
2018-03-27T09:53:13.692Z,9.60
2018-03-27T09:55:41.945Z,9.40
2018-03-27T09:58:09.486Z,9.40
2018-03-27T10:00:42.748Z,9.40
2018-03-27T10:03:11.017Z,10.00
2018-03-27T10:05:38.551Z,10.00
2018-03-27T10:08:06.052Z,10.40
2018-03-27T10:13:31.661Z,10.50
2018-03-27T10:15:59.137Z,11.00
2018-03-27T10:18:31.192Z,11.10
2018-03-27T10:20:59.410Z,11.40
2018-03-27T10:23:26.892Z,11.40
2018-03-27T10:25:54.405Z,11.70
2018-03-27T10:28:25.892Z,11.90
2018-03-27T10:30:53.397Z,12.20
2018-03-27T10:33:24.735Z,12.20
2018-03-27T10:35:52.216Z,12.00
2018-03-27T10:38:19.710Z,11.50
2018-03-27T10:40:47.288Z,11.30
2018-03-27T10:43:14.824Z,11.60
2018-03-27T10:45:42.329Z,11.70
2018-03-27T10:48:09.807Z,11.30
2018-03-27T10:50:45.201Z,11.80
2018-03-27T10:53:24.092Z,11.80
2018-03-27T10:55:56.143Z,11.60
2018-03-27T10:58:27.832Z,11.50
2018-03-27T11:00:55.755Z,11.20
2018-03-27T11:03:23.372Z,11.00
2018-03-27T11:05:50.959Z,10.80
2018-03-27T11:08:18.577Z,10.70
2018-03-27T11:10:46.852Z,10.50
2018-03-27T11:13:15.142Z,10.40
2018-03-27T11:15:46.291Z,10.50
2018-03-27T11:18:15.149Z,10.70
2018-03-27T11:20:47.151Z,10.70
2018-03-27T11:23:14.677Z,10.90
2018-03-27T11:25:47.474Z,12.10
2018-03-27T11:28:15.048Z,12.10
2018-03-27T11:30:42.555Z,12.00
2018-03-27T11:33:10.205Z,11.80
2018-03-27T11:35:37.714Z,11.70
2018-03-27T11:38:14.788Z,12.00
2018-03-27T11:40:43.291Z,12.20
2018-03-27T11:43:10.760Z,12.40
2018-03-27T11:45:38.219Z,12.50
2018-03-27T11:51:09.450Z,12.40
2018-03-27T11:53:53.824Z,11.80
2018-03-27T11:56:24.620Z,11.40
2018-03-27T11:59:12.760Z,11.30
2018-03-27T12:02:05.894Z,11.30
2018-03-27T12:04:56.267Z,11.10
2018-03-27T12:13:25.351Z,10.70
2018-03-27T12:28:02.805Z,10.30
2018-03-27T12:30:41.453Z,10.20
2018-03-27T12:33:24.576Z,10.20
2018-03-27T12:35:55.317Z,10.20
2018-03-27T12:38:24.707Z,10.00
2018-03-27T12:46:41.705Z,9.90
2018-03-27T12:49:29.445Z,9.90
2018-03-27T12:51:58.142Z,9.90
2018-03-27T12:54:25.900Z,9.80
2018-03-27T12:56:54.282Z,9.70
2018-03-27T12:59:21.863Z,9.70
2018-03-27T13:01:49.376Z,9.80
2018-03-27T13:04:18.005Z,9.80
2018-03-27T13:06:55.549Z,9.70
2018-03-27T13:45:23.190Z,9.80
2018-03-27T13:51:09.022Z,10.20
2018-03-27T13:53:53.906Z,10.20
2018-03-27T13:56:32.277Z,10.10
2018-03-27T14:11:33.212Z,10.40
2018-03-27T14:14:21.365Z,10.50
2018-03-27T14:17:01.622Z,10.40
2018-03-27T14:19:32.258Z,10.50
2018-03-27T14:21:59.934Z,10.50
2018-03-27T14:24:38.505Z,10.50
2018-03-27T14:27:29.222Z,10.30
2018-03-27T14:29:59.721Z,10.30
2018-03-27T14:35:26.367Z,10.20
2018-03-27T14:37:59.187Z,10.30
2018-03-27T14:46:36.858Z,10.20
2018-03-27T14:51:53.620Z,10.20
2018-03-27T14:54:24.371Z,10.20
2018-03-27T14:56:54.663Z,10.10
2018-03-27T14:59:24.634Z,10.10
2018-03-27T15:02:31.713Z,10.10
2018-03-27T15:04:59.319Z,10.00
2018-03-27T15:07:27.155Z,9.80
2018-03-27T15:09:55.554Z,9.80
2018-03-27T15:12:23.721Z,9.80
2018-03-27T15:14:52.038Z,9.70
2018-03-27T15:17:25.577Z,9.70
2018-03-27T15:19:59.459Z,9.70
2018-03-27T15:22:26.973Z,9.70
2018-03-27T15:24:54.581Z,9.60
2018-03-27T15:27:23.057Z,9.60
2018-03-27T15:29:53.388Z,9.40
2018-03-27T15:35:23.823Z,9.40
2018-03-27T15:37:56.184Z,9.20
2018-03-27T15:53:23.691Z,9.40
2018-03-27T15:55:53.064Z,9.50
2018-03-27T15:58:21.705Z,9.50
2018-03-27T16:00:55.384Z,9.50
2018-03-27T16:03:25.335Z,9.50
2018-03-27T16:05:52.840Z,9.40
2018-03-27T16:08:20.454Z,9.40
2018-03-27T16:10:47.977Z,9.30
2018-03-27T16:13:27.138Z,9.30
2018-03-27T16:18:54.065Z,9.10
2018-03-27T16:21:26.023Z,9.30
2018-03-27T16:23:57.842Z,9.20
2018-03-27T16:29:24.707Z,9.20
2018-03-27T16:34:54.707Z,9.20
2018-03-27T16:40:21.324Z,9.20
2018-03-27T16:42:54.849Z,9.30
2018-03-27T16:50:55.677Z,9.10
2018-03-27T16:53:23.187Z,9.20
2018-03-27T16:55:55.746Z,9.20
2018-03-27T17:03:56.104Z,9.10
2018-03-27T17:06:24.594Z,9.00
2018-03-27T17:09:16.093Z,9.00
2018-03-27T17:11:55.981Z,9.10
2018-03-27T17:14:24.643Z,9.10
2018-03-27T17:17:11.793Z,9.10
2018-03-27T17:19:46.278Z,9.10
2018-03-27T17:22:58.926Z,9.10
2018-03-27T17:34:24.388Z,8.80
2018-03-27T17:36:55.795Z,8.70
2018-03-27T17:51:53.745Z,8.70
2018-03-27T17:54:26.190Z,8.70
2018-03-27T17:56:55.065Z,8.70
2018-03-27T18:19:27.078Z,8.70
2018-03-27T18:21:58.183Z,8.70
2018-03-27T18:24:25.903Z,8.60
2018-03-27T18:26:55.181Z,8.60
2018-03-27T18:29:26.609Z,8.60
2018-03-27T18:31:54.971Z,8.60
2018-03-27T18:34:22.636Z,8.50
2018-03-27T18:37:01.548Z,8.40
2018-03-27T18:39:31.716Z,8.40
2018-03-27T18:41:59.246Z,8.30
2018-03-27T18:44:28.142Z,8.20
2018-03-27T18:46:55.831Z,8.20
2018-03-27T18:49:24.153Z,8.10
2018-03-27T18:51:54.209Z,8.10
2018-03-27T18:54:24.942Z,8.10
2018-03-27T18:56:58.570Z,8.00
2018-03-27T18:59:26.132Z,7.90
2018-03-27T19:01:53.760Z,7.80
2018-03-27T19:04:33.729Z,7.80
2018-03-27T19:07:01.397Z,7.80
2018-03-27T19:09:30.617Z,7.70
2018-03-27T19:11:59.959Z,7.70
2018-03-27T19:14:28.310Z,7.70
2018-03-27T19:16:56.936Z,7.70
2018-03-27T19:19:25.744Z,7.70
2018-03-27T19:22:00.681Z,7.70
2018-03-27T19:27:25.198Z,7.70
2018-03-27T19:32:57.858Z,7.60
2018-03-27T19:35:26.338Z,7.60
2018-03-27T19:38:02.339Z,7.70
2018-03-27T19:43:26.279Z,7.50
2018-03-27T19:45:56.007Z,7.50
2018-03-27T19:48:24.600Z,7.40
2018-03-27T19:50:59.489Z,7.40
2018-03-27T19:53:30.258Z,7.40
2018-03-27T19:55:57.876Z,7.30
2018-03-27T19:58:28.559Z,7.30
2018-03-27T20:00:56.910Z,7.40
2018-03-27T20:03:25.541Z,7.40
2018-03-27T20:05:57.657Z,7.30
2018-03-27T20:08:26.071Z,7.30
2018-03-27T20:11:00.192Z,7.30
2018-03-27T20:13:27.944Z,7.30
2018-03-27T20:15:56.241Z,7.20
2018-03-27T20:18:25.151Z,7.20
2018-03-27T20:21:01.926Z,7.10
2018-03-27T20:23:29.439Z,7.10
2018-03-27T20:26:02.721Z,7.10
2018-03-27T20:28:34.446Z,7.10
2018-03-27T20:31:01.937Z,7.10
2018-03-27T20:33:29.457Z,7.20
2018-03-27T20:36:12.397Z,7.20
2018-03-27T20:38:39.904Z,7.10
2018-03-27T20:41:07.432Z,7.00
2018-03-27T20:43:35.072Z,6.80
2018-03-27T20:46:08.200Z,6.80
2018-03-27T20:48:36.812Z,6.80
2018-03-27T20:51:06.308Z,6.90
2018-03-27T20:53:33.824Z,6.80
2018-03-27T20:56:01.321Z,6.80
2018-03-27T20:58:28.792Z,6.80
2018-03-27T21:00:56.290Z,6.70
2018-03-27T21:03:25.164Z,6.60
2018-03-27T21:05:53.447Z,6.60
2018-03-27T21:08:21.006Z,6.60
2018-03-27T21:10:59.215Z,6.70
2018-03-27T21:13:26.742Z,6.70
2018-03-27T21:16:02.704Z,6.60
2018-03-27T21:18:30.925Z,6.70
2018-03-27T21:20:59.053Z,6.70
2018-03-27T21:23:31.191Z,6.80
2018-03-27T21:25:58.814Z,6.80
2018-03-27T21:28:27.811Z,6.70
2018-03-27T21:30:55.284Z,6.80
2018-03-27T21:33:27.545Z,6.80
2018-03-27T21:36:01.571Z,6.80
2018-03-27T21:38:30.137Z,6.80
2018-03-27T21:41:03.173Z,6.70
2018-03-27T21:43:30.660Z,6.80
2018-03-27T21:45:58.153Z,6.70
2018-03-27T21:48:25.644Z,6.70
2018-03-27T21:50:53.507Z,6.60
2018-03-27T21:53:27.954Z,6.50
2018-03-27T21:55:55.442Z,6.50
2018-03-27T21:58:27.122Z,6.60
2018-03-27T22:00:54.616Z,6.60
2018-03-27T22:03:22.100Z,6.70
2018-03-27T22:05:50.354Z,6.70
2018-03-27T22:08:22.014Z,6.60
2018-03-27T22:10:49.920Z,6.40
2018-03-27T22:13:29.276Z,6.40
2018-03-27T22:15:58.776Z,6.50
2018-03-27T22:18:26.258Z,6.40
2018-03-27T22:20:53.811Z,6.30
2018-03-27T22:23:21.251Z,6.30
2018-03-27T22:26:02.321Z,6.30
2018-03-27T22:28:29.812Z,6.20
2018-03-27T22:30:58.945Z,6.10
2018-03-27T22:33:28.360Z,6.00
2018-03-27T22:35:55.869Z,6.00
2018-03-27T22:38:24.116Z,6.00
2018-03-27T22:40:51.628Z,6.00
2018-03-27T22:43:19.870Z,6.10
2018-03-27T22:45:47.359Z,6.00
2018-03-27T22:48:15.099Z,6.10
2018-03-27T22:50:42.871Z,6.20
2018-03-27T22:53:10.443Z,6.20
2018-03-27T22:55:38.689Z,6.10
2018-03-27T22:58:07.029Z,6.10
2018-03-27T23:00:37.696Z,6.10
2018-03-27T23:03:05.231Z,6.20
2018-03-27T23:05:32.747Z,6.20
2018-03-27T23:08:00.234Z,6.20
2018-03-27T23:10:28.501Z,6.10
2018-03-27T23:12:58.560Z,6.10
2018-03-27T23:15:28.230Z,6.20
2018-03-27T23:17:55.730Z,6.20
2018-03-27T23:20:23.994Z,6.10
2018-03-27T23:22:51.496Z,6.10
2018-03-27T23:25:28.074Z,6.20
2018-03-27T23:27:56.339Z,6.20
2018-03-27T23:30:23.838Z,6.20
2018-03-27T23:32:59.426Z,6.20
2018-03-27T23:35:27.073Z,6.20
2018-03-27T23:37:55.501Z,6.20
2018-03-27T23:40:23.428Z,6.20
2018-03-27T23:42:51.644Z,6.20
2018-03-27T23:45:19.280Z,6.20
2018-03-27T23:47:46.764Z,6.20
2018-03-27T23:50:14.233Z,6.10
2018-03-27T23:52:43.669Z,6.20
2018-03-27T23:55:11.313Z,6.10
